sensor_id;sensor_type;location;lat;lon;timestamp;temperature;humidity
25046;DHT22;13044;49.304;12.840;2023-10-08T00:00:49;15.70;99.90
25046;DHT22;13044;49.304;12.840;2023-10-08T00:03:17;15.70;99.90
25046;DHT22;13044;49.304;12.840;2023-10-08T00:05:44;15.70;99.90
25046;DHT22;13044;49.304;12.840;2023-10-08T00:08:12;15.70;99.90
25046;DHT22;13044;49.304;12.840;2023-10-08T00:10:44;15.60;99.90
25046;DHT22;13044;49.304;12.840;2023-10-08T00:13:12;15.70;99.90
25046;DHT22;13044;49.304;12.840;2023-10-08T00:15:43;15.70;99.90
25046;DHT22;13044;49.304;12.840;2023-10-08T00:18:21;15.70;99.90
25046;DHT22;13044;49.304;12.840;2023-10-08T00:20:52;15.70;99.90
25046;DHT22;13044;49.304;12.840;2023-10-08T00:23:25;15.70;99.90
25046;DHT22;13044;49.304;12.840;2023-10-08T00:25:53;15.70;99.90
25046;DHT22;13044;49.304;12.840;2023-10-08T00:28:22;15.70;99.90
25046;DHT22;13044;49.304;12.840;2023-10-08T00:30:49;15.80;99.90
25046;DHT22;13044;49.304;12.840;2023-10-08T00:33:16;15.70;99.90
25046;DHT22;13044;49.304;12.840;2023-10-08T00:35:43;15.80;99.90
25046;DHT22;13044;49.304;12.840;2023-10-08T00:38:11;15.80;99.90
25046;DHT22;13044;49.304;12.840;2023-10-08T00:40:41;15.80;99.90
25046;DHT22;13044;49.304;12.840;2023-10-08T00:43:31;15.80;99.90
25046;DHT22;13044;49.304;12.840;2023-10-08T00:46:07;15.80;99.90
25046;DHT22;13044;49.304;12.840;2023-10-08T00:48:54;15.80;99.90
25046;DHT22;13044;49.304;12.840;2023-10-08T00:51:23;15.80;99.90
25046;DHT22;13044;49.304;12.840;2023-10-08T00:54:03;15.80;99.90
25046;DHT22;13044;49.304;12.840;2023-10-08T00:56:34;15.80;99.90
25046;DHT22;13044;49.304;12.840;2023-10-08T00:59:24;15.80;99.90
25046;DHT22;13044;49.304;12.840;2023-10-08T01:01:52;15.80;99.90
25046;DHT22;13044;49.304;12.840;2023-10-08T01:04:26;15.80;99.90
25046;DHT22;13044;49.304;12.840;2023-10-08T01:06:55;15.80;99.90
25046;DHT22;13044;49.304;12.840;2023-10-08T01:09:28;15.80;99.90
25046;DHT22;13044;49.304;12.840;2023-10-08T01:12:13;15.80;99.90
25046;DHT22;13044;49.304;12.840;2023-10-08T01:14:56;15.70;99.90
25046;DHT22;13044;49.304;12.840;2023-10-08T01:17:42;15.70;99.90
25046;DHT22;13044;49.304;12.840;2023-10-08T01:20:24;15.70;99.90
25046;DHT22;13044;49.304;12.840;2023-10-08T01:25:31;15.80;99.90
25046;DHT22;13044;49.304;12.840;2023-10-08T01:27:58;15.70;99.90
25046;DHT22;13044;49.304;12.840;2023-10-08T01:30:35;15.70;99.90
25046;DHT22;13044;49.304;12.840;2023-10-08T01:33:08;15.70;99.90
25046;DHT22;13044;49.304;12.840;2023-10-08T01:35:40;15.70;99.90
25046;DHT22;13044;49.304;12.840;2023-10-08T01:38:07;15.70;99.90
25046;DHT22;13044;49.304;12.840;2023-10-08T01:40:43;15.70;99.90
25046;DHT22;13044;49.304;12.840;2023-10-08T01:43:09;15.70;99.90
25046;DHT22;13044;49.304;12.840;2023-10-08T01:45:40;15.80;99.90
25046;DHT22;13044;49.304;12.840;2023-10-08T01:48:07;15.70;99.90
25046;DHT22;13044;49.304;12.840;2023-10-08T01:50:38;15.80;99.90
25046;DHT22;13044;49.304;12.840;2023-10-08T01:53:05;15.80;99.90
25046;DHT22;13044;49.304;12.840;2023-10-08T01:55:36;15.80;99.90
25046;DHT22;13044;49.304;12.840;2023-10-08T01:58:14;15.80;99.90
25046;DHT22;13044;49.304;12.840;2023-10-08T02:00:47;15.80;99.90
25046;DHT22;13044;49.304;12.840;2023-10-08T02:03:16;15.80;99.90
25046;DHT22;13044;49.304;12.840;2023-10-08T02:05:46;15.80;99.90
25046;DHT22;13044;49.304;12.840;2023-10-08T02:08:14;15.80;99.90
25046;DHT22;13044;49.304;12.840;2023-10-08T02:10:43;15.70;99.90
25046;DHT22;13044;49.304;12.840;2023-10-08T02:13:14;15.80;99.90
25046;DHT22;13044;49.304;12.840;2023-10-08T02:15:49;15.70;99.90
25046;DHT22;13044;49.304;12.840;2023-10-08T02:18:20;15.80;99.90
25046;DHT22;13044;49.304;12.840;2023-10-08T02:20:48;15.80;99.90
25046;DHT22;13044;49.304;12.840;2023-10-08T02:23:15;15.70;99.90
25046;DHT22;13044;49.304;12.840;2023-10-08T02:25:42;15.70;99.90
25046;DHT22;13044;49.304;12.840;2023-10-08T02:28:09;15.70;99.90
25046;DHT22;13044;49.304;12.840;2023-10-08T02:30:43;15.80;99.90
25046;DHT22;13044;49.304;12.840;2023-10-08T02:33:10;15.80;99.90
25046;DHT22;13044;49.304;12.840;2023-10-08T02:35:44;15.80;99.90
25046;DHT22;13044;49.304;12.840;2023-10-08T02:38:14;15.80;99.90
25046;DHT22;13044;49.304;12.840;2023-10-08T02:40:45;15.80;99.90
25046;DHT22;13044;49.304;12.840;2023-10-08T02:43:14;15.80;99.90
25046;DHT22;13044;49.304;12.840;2023-10-08T02:45:43;15.80;99.90
25046;DHT22;13044;49.304;12.840;2023-10-08T02:48:15;15.80;99.90
25046;DHT22;13044;49.304;12.840;2023-10-08T02:50:43;15.80;99.90
25046;DHT22;13044;49.304;12.840;2023-10-08T02:53:13;15.80;99.90
25046;DHT22;13044;49.304;12.840;2023-10-08T02:55:47;15.80;99.90
25046;DHT22;13044;49.304;12.840;2023-10-08T02:58:14;15.90;99.90
25046;DHT22;13044;49.304;12.840;2023-10-08T03:00:43;15.80;99.90
25046;DHT22;13044;49.304;12.840;2023-10-08T03:03:15;15.80;99.90
25046;DHT22;13044;49.304;12.840;2023-10-08T03:05:51;15.80;99.90
25046;DHT22;13044;49.304;12.840;2023-10-08T03:08:19;15.70;99.90
25046;DHT22;13044;49.304;12.840;2023-10-08T03:10:51;15.70;99.90
25046;DHT22;13044;49.304;12.840;2023-10-08T03:13:29;15.70;99.90
25046;DHT22;13044;49.304;12.840;2023-10-08T03:15:56;15.60;99.90
25046;DHT22;13044;49.304;12.840;2023-10-08T03:18:29;15.60;99.90
25046;DHT22;13044;49.304;12.840;2023-10-08T03:21:06;15.60;99.90
25046;DHT22;13044;49.304;12.840;2023-10-08T03:23:50;15.60;99.90
25046;DHT22;13044;49.304;12.840;2023-10-08T03:26:18;15.60;99.90
25046;DHT22;13044;49.304;12.840;2023-10-08T03:29:01;15.60;99.90
25046;DHT22;13044;49.304;12.840;2023-10-08T03:31:42;15.60;99.90
25046;DHT22;13044;49.304;12.840;2023-10-08T03:34:15;15.50;99.90
25046;DHT22;13044;49.304;12.840;2023-10-08T03:36:46;15.50;99.90
25046;DHT22;13044;49.304;12.840;2023-10-08T03:39:14;15.50;99.90
25046;DHT22;13044;49.304;12.840;2023-10-08T03:41:41;15.50;99.90
25046;DHT22;13044;49.304;12.840;2023-10-08T03:44:09;15.50;99.90
25046;DHT22;13044;49.304;12.840;2023-10-08T03:46:43;15.40;99.90
25046;DHT22;13044;49.304;12.840;2023-10-08T03:49:13;15.40;99.90
25046;DHT22;13044;49.304;12.840;2023-10-08T03:51:49;15.40;99.90
25046;DHT22;13044;49.304;12.840;2023-10-08T03:54:19;15.40;99.90
25046;DHT22;13044;49.304;12.840;2023-10-08T03:56:56;15.40;99.90
25046;DHT22;13044;49.304;12.840;2023-10-08T03:59:24;15.40;99.90
25046;DHT22;13044;49.304;12.840;2023-10-08T04:02:07;15.30;99.90
25046;DHT22;13044;49.304;12.840;2023-10-08T04:04:42;15.40;99.90
25046;DHT22;13044;49.304;12.840;2023-10-08T04:07:19;15.40;99.90
25046;DHT22;13044;49.304;12.840;2023-10-08T04:10:00;15.40;99.90
25046;DHT22;13044;49.304;12.840;2023-10-08T04:12:37;15.40;99.90
25046;DHT22;13044;49.304;12.840;2023-10-08T04:15:09;15.40;99.90
25046;DHT22;13044;49.304;12.840;2023-10-08T04:17:39;15.40;99.90
25046;DHT22;13044;49.304;12.840;2023-10-08T04:20:15;15.30;99.90
25046;DHT22;13044;49.304;12.840;2023-10-08T04:23:06;15.40;99.90
25046;DHT22;13044;49.304;12.840;2023-10-08T04:25:48;15.30;99.90
25046;DHT22;13044;49.304;12.840;2023-10-08T04:28:21;15.30;99.90
25046;DHT22;13044;49.304;12.840;2023-10-08T04:30:49;15.40;99.90
25046;DHT22;13044;49.304;12.840;2023-10-08T04:33:17;15.30;99.90
25046;DHT22;13044;49.304;12.840;2023-10-08T04:35:46;15.30;99.90
25046;DHT22;13044;49.304;12.840;2023-10-08T04:38:23;15.30;99.90
25046;DHT22;13044;49.304;12.840;2023-10-08T04:40:53;15.30;99.90
25046;DHT22;13044;49.304;12.840;2023-10-08T04:43:21;15.20;99.90
25046;DHT22;13044;49.304;12.840;2023-10-08T04:45:55;15.20;99.90
25046;DHT22;13044;49.304;12.840;2023-10-08T04:48:27;15.20;99.90
25046;DHT22;13044;49.304;12.840;2023-10-08T04:50:59;15.20;99.90
25046;DHT22;13044;49.304;12.840;2023-10-08T04:55:59;15.10;99.90
25046;DHT22;13044;49.304;12.840;2023-10-08T04:58:33;15.20;99.90
25046;DHT22;13044;49.304;12.840;2023-10-08T05:01:04;15.20;99.90
25046;DHT22;13044;49.304;12.840;2023-10-08T05:03:52;15.20;99.90
25046;DHT22;13044;49.304;12.840;2023-10-08T05:06:27;15.20;99.90
25046;DHT22;13044;49.304;12.840;2023-10-08T05:09:10;15.20;99.90
25046;DHT22;13044;49.304;12.840;2023-10-08T05:11:49;15.20;99.90
25046;DHT22;13044;49.304;12.840;2023-10-08T05:14:21;15.20;99.90
25046;DHT22;13044;49.304;12.840;2023-10-08T05:17:04;15.30;99.90
25046;DHT22;13044;49.304;12.840;2023-10-08T05:19:42;15.20;99.90
25046;DHT22;13044;49.304;12.840;2023-10-08T05:22:15;15.20;99.90
25046;DHT22;13044;49.304;12.840;2023-10-08T05:24:56;15.30;99.90
25046;DHT22;13044;49.304;12.840;2023-10-08T05:27:43;15.30;99.90
25046;DHT22;13044;49.304;12.840;2023-10-08T05:30:20;15.30;99.90
25046;DHT22;13044;49.304;12.840;2023-10-08T05:33:21;15.20;99.90
25046;DHT22;13044;49.304;12.840;2023-10-08T05:36:10;15.30;99.90
25046;DHT22;13044;49.304;12.840;2023-10-08T05:38:44;15.30;99.90
25046;DHT22;13044;49.304;12.840;2023-10-08T05:41:30;15.30;99.90
25046;DHT22;13044;49.304;12.840;2023-10-08T05:43:56;15.30;99.90
25046;DHT22;13044;49.304;12.840;2023-10-08T05:46:50;15.30;99.90
25046;DHT22;13044;49.304;12.840;2023-10-08T05:49:22;15.30;99.90
25046;DHT22;13044;49.304;12.840;2023-10-08T05:51:58;15.30;99.90
25046;DHT22;13044;49.304;12.840;2023-10-08T05:54:25;15.20;99.90
25046;DHT22;13044;49.304;12.840;2023-10-08T05:57:01;15.20;99.90
25046;DHT22;13044;49.304;12.840;2023-10-08T05:59:39;15.20;99.90
25046;DHT22;13044;49.304;12.840;2023-10-08T06:05:04;15.30;99.90
25046;DHT22;13044;49.304;12.840;2023-10-08T06:07:52;15.30;99.90
25046;DHT22;13044;49.304;12.840;2023-10-08T06:10:28;15.40;99.90
25046;DHT22;13044;49.304;12.840;2023-10-08T06:13:02;15.40;99.90
25046;DHT22;13044;49.304;12.840;2023-10-08T06:15:36;15.40;99.90
25046;DHT22;13044;49.304;12.840;2023-10-08T06:18:27;15.50;99.90
25046;DHT22;13044;49.304;12.840;2023-10-08T06:21:03;15.60;99.90
25046;DHT22;13044;49.304;12.840;2023-10-08T06:23:37;15.60;99.90
25046;DHT22;13044;49.304;12.840;2023-10-08T06:26:05;15.60;99.90
25046;DHT22;13044;49.304;12.840;2023-10-08T06:28:42;15.60;99.90
25046;DHT22;13044;49.304;12.840;2023-10-08T06:31:11;15.60;99.90
25046;DHT22;13044;49.304;12.840;2023-10-08T06:33:40;15.60;99.90
25046;DHT22;13044;49.304;12.840;2023-10-08T06:36:08;15.60;99.90
25046;DHT22;13044;49.304;12.840;2023-10-08T06:38:40;15.70;99.90
25046;DHT22;13044;49.304;12.840;2023-10-08T06:41:15;15.70;99.90
25046;DHT22;13044;49.304;12.840;2023-10-08T06:46:34;15.70;99.90
25046;DHT22;13044;49.304;12.840;2023-10-08T06:49:07;15.70;99.90
25046;DHT22;13044;49.304;12.840;2023-10-08T06:51:40;15.70;99.90
25046;DHT22;13044;49.304;12.840;2023-10-08T06:54:11;15.70;99.90
25046;DHT22;13044;49.304;12.840;2023-10-08T06:56:41;15.80;99.90
25046;DHT22;13044;49.304;12.840;2023-10-08T06:59:19;15.80;99.90
25046;DHT22;13044;49.304;12.840;2023-10-08T07:01:49;15.80;99.90
25046;DHT22;13044;49.304;12.840;2023-10-08T07:04:18;15.90;99.90
25046;DHT22;13044;49.304;12.840;2023-10-08T07:06:47;15.90;99.90
25046;DHT22;13044;49.304;12.840;2023-10-08T07:09:14;15.90;99.90
25046;DHT22;13044;49.304;12.840;2023-10-08T07:11:57;15.90;99.90
25046;DHT22;13044;49.304;12.840;2023-10-08T07:14:27;15.90;99.90
25046;DHT22;13044;49.304;12.840;2023-10-08T07:16:56;16.00;99.90
25046;DHT22;13044;49.304;12.840;2023-10-08T07:19:29;16.00;99.90
25046;DHT22;13044;49.304;12.840;2023-10-08T07:22:00;16.00;99.90
25046;DHT22;13044;49.304;12.840;2023-10-08T07:24:30;16.00;99.90
25046;DHT22;13044;49.304;12.840;2023-10-08T07:27:02;16.10;99.90
25046;DHT22;13044;49.304;12.840;2023-10-08T07:29:35;16.10;99.90
25046;DHT22;13044;49.304;12.840;2023-10-08T07:32:03;16.10;99.90
25046;DHT22;13044;49.304;12.840;2023-10-08T07:34:39;16.10;99.90
25046;DHT22;13044;49.304;12.840;2023-10-08T07:37:07;16.10;99.90
25046;DHT22;13044;49.304;12.840;2023-10-08T07:39:37;16.10;99.90
25046;DHT22;13044;49.304;12.840;2023-10-08T07:42:11;16.10;99.90
25046;DHT22;13044;49.304;12.840;2023-10-08T07:44:39;16.10;99.90
25046;DHT22;13044;49.304;12.840;2023-10-08T07:47:06;16.20;99.90
25046;DHT22;13044;49.304;12.840;2023-10-08T07:49:39;16.20;99.90
25046;DHT22;13044;49.304;12.840;2023-10-08T07:52:06;16.30;99.90
25046;DHT22;13044;49.304;12.840;2023-10-08T07:54:33;16.40;99.90
25046;DHT22;13044;49.304;12.840;2023-10-08T07:57:03;16.40;99.90
25046;DHT22;13044;49.304;12.840;2023-10-08T07:59:40;16.40;99.90
25046;DHT22;13044;49.304;12.840;2023-10-08T08:02:09;16.40;99.90
25046;DHT22;13044;49.304;12.840;2023-10-08T08:04:41;16.40;99.90
25046;DHT22;13044;49.304;12.840;2023-10-08T08:07:13;16.50;99.90
25046;DHT22;13044;49.304;12.840;2023-10-08T08:09:44;16.60;99.90
25046;DHT22;13044;49.304;12.840;2023-10-08T08:12:20;16.60;99.90
25046;DHT22;13044;49.304;12.840;2023-10-08T08:14:52;16.70;99.90
25046;DHT22;13044;49.304;12.840;2023-10-08T08:17:19;16.80;99.90
25046;DHT22;13044;49.304;12.840;2023-10-08T08:19:50;16.90;99.90
25046;DHT22;13044;49.304;12.840;2023-10-08T08:22:20;17.00;99.90
25046;DHT22;13044;49.304;12.840;2023-10-08T08:24:53;17.10;99.90
25046;DHT22;13044;49.304;12.840;2023-10-08T08:27:25;17.20;99.90
25046;DHT22;13044;49.304;12.840;2023-10-08T08:30:01;17.30;99.90
25046;DHT22;13044;49.304;12.840;2023-10-08T08:32:42;17.40;99.90
25046;DHT22;13044;49.304;12.840;2023-10-08T08:35:11;17.50;99.90
25046;DHT22;13044;49.304;12.840;2023-10-08T08:37:43;17.50;99.90
25046;DHT22;13044;49.304;12.840;2023-10-08T08:40:13;17.50;99.90
25046;DHT22;13044;49.304;12.840;2023-10-08T08:42:48;17.60;99.90
25046;DHT22;13044;49.304;12.840;2023-10-08T08:45:19;17.50;99.90
25046;DHT22;13044;49.304;12.840;2023-10-08T08:47:48;17.50;99.90
25046;DHT22;13044;49.304;12.840;2023-10-08T08:50:15;17.50;99.90
25046;DHT22;13044;49.304;12.840;2023-10-08T08:52:44;17.50;99.90
25046;DHT22;13044;49.304;12.840;2023-10-08T08:55:12;17.50;99.90
25046;DHT22;13044;49.304;12.840;2023-10-08T08:57:47;17.50;99.90
25046;DHT22;13044;49.304;12.840;2023-10-08T09:00:17;17.50;99.90
25046;DHT22;13044;49.304;12.840;2023-10-08T09:02:47;17.50;99.90
25046;DHT22;13044;49.304;12.840;2023-10-08T09:05:15;17.50;99.90
25046;DHT22;13044;49.304;12.840;2023-10-08T09:08:04;17.60;99.90
25046;DHT22;13044;49.304;12.840;2023-10-08T09:10:36;17.60;99.90
25046;DHT22;13044;49.304;12.840;2023-10-08T09:13:05;17.70;99.90
25046;DHT22;13044;49.304;12.840;2023-10-08T09:15:35;17.70;99.90
25046;DHT22;13044;49.304;12.840;2023-10-08T09:18:07;17.80;99.90
25046;DHT22;13044;49.304;12.840;2023-10-08T09:20:39;17.70;99.90
25046;DHT22;13044;49.304;12.840;2023-10-08T09:23:15;17.70;99.90
25046;DHT22;13044;49.304;12.840;2023-10-08T09:25:45;17.80;99.90
25046;DHT22;13044;49.304;12.840;2023-10-08T09:28:17;17.80;99.90
25046;DHT22;13044;49.304;12.840;2023-10-08T09:30:44;17.70;99.90
25046;DHT22;13044;49.304;12.840;2023-10-08T09:33:13;17.60;99.90
25046;DHT22;13044;49.304;12.840;2023-10-08T09:35:42;17.70;99.90
25046;DHT22;13044;49.304;12.840;2023-10-08T09:38:14;17.70;99.90
25046;DHT22;13044;49.304;12.840;2023-10-08T09:40:49;17.80;99.90
25046;DHT22;13044;49.304;12.840;2023-10-08T09:43:19;17.90;99.90
25046;DHT22;13044;49.304;12.840;2023-10-08T09:45:51;18.00;99.90
25046;DHT22;13044;49.304;12.840;2023-10-08T09:48:20;18.10;99.90
25046;DHT22;13044;49.304;12.840;2023-10-08T09:50:52;18.20;99.90
25046;DHT22;13044;49.304;12.840;2023-10-08T09:53:28;18.10;99.90
25046;DHT22;13044;49.304;12.840;2023-10-08T09:56:07;18.10;99.90
25046;DHT22;13044;49.304;12.840;2023-10-08T09:58:41;18.10;99.90
25046;DHT22;13044;49.304;12.840;2023-10-08T10:01:10;18.10;99.90
25046;DHT22;13044;49.304;12.840;2023-10-08T10:03:37;18.10;99.90
25046;DHT22;13044;49.304;12.840;2023-10-08T10:06:12;18.20;99.90
25046;DHT22;13044;49.304;12.840;2023-10-08T10:08:42;18.20;99.90
25046;DHT22;13044;49.304;12.840;2023-10-08T10:11:09;18.10;99.90
25046;DHT22;13044;49.304;12.840;2023-10-08T10:13:50;18.10;99.90
25046;DHT22;13044;49.304;12.840;2023-10-08T10:16:26;18.10;99.90
25046;DHT22;13044;49.304;12.840;2023-10-08T10:18:59;18.10;99.90
25046;DHT22;13044;49.304;12.840;2023-10-08T10:21:30;18.10;99.90
25046;DHT22;13044;49.304;12.840;2023-10-08T10:23:58;18.10;99.90
25046;DHT22;13044;49.304;12.840;2023-10-08T10:26:32;18.10;99.90
25046;DHT22;13044;49.304;12.840;2023-10-08T10:31:44;18.00;99.90
25046;DHT22;13044;49.304;12.840;2023-10-08T10:34:15;18.00;99.90
25046;DHT22;13044;49.304;12.840;2023-10-08T10:37:01;18.00;99.90
25046;DHT22;13044;49.304;12.840;2023-10-08T10:39:56;18.00;99.90
25046;DHT22;13044;49.304;12.840;2023-10-08T10:42:27;18.00;99.90
25046;DHT22;13044;49.304;12.840;2023-10-08T10:44:57;18.00;99.90
25046;DHT22;13044;49.304;12.840;2023-10-08T10:47:25;18.00;99.90
25046;DHT22;13044;49.304;12.840;2023-10-08T10:49:54;18.00;99.90
25046;DHT22;13044;49.304;12.840;2023-10-08T10:52:33;18.00;99.90
25046;DHT22;13044;49.304;12.840;2023-10-08T10:55:09;18.00;99.90
25046;DHT22;13044;49.304;12.840;2023-10-08T10:57:54;18.00;99.90
25046;DHT22;13044;49.304;12.840;2023-10-08T11:00:25;18.00;99.90
25046;DHT22;13044;49.304;12.840;2023-10-08T11:02:59;18.00;99.90
25046;DHT22;13044;49.304;12.840;2023-10-08T11:05:33;18.00;99.90
25046;DHT22;13044;49.304;12.840;2023-10-08T11:08:06;18.00;99.90
25046;DHT22;13044;49.304;12.840;2023-10-08T11:10:36;18.00;99.90
25046;DHT22;13044;49.304;12.840;2023-10-08T11:13:13;18.00;99.90
25046;DHT22;13044;49.304;12.840;2023-10-08T11:15:45;18.00;99.90
25046;DHT22;13044;49.304;12.840;2023-10-08T11:18:21;17.90;99.90
25046;DHT22;13044;49.304;12.840;2023-10-08T11:20:50;17.60;99.90
25046;DHT22;13044;49.304;12.840;2023-10-08T11:23:39;17.40;99.90
25046;DHT22;13044;49.304;12.840;2023-10-08T11:26:10;16.90;99.90
25046;DHT22;13044;49.304;12.840;2023-10-08T11:28:40;16.80;99.90
25046;DHT22;13044;49.304;12.840;2023-10-08T11:31:16;16.50;99.90
25046;DHT22;13044;49.304;12.840;2023-10-08T11:33:47;16.40;99.90
25046;DHT22;13044;49.304;12.840;2023-10-08T11:36:22;16.10;99.90
25046;DHT22;13044;49.304;12.840;2023-10-08T11:38:59;16.00;99.90
25046;DHT22;13044;49.304;12.840;2023-10-08T11:41:36;15.70;99.90
25046;DHT22;13044;49.304;12.840;2023-10-08T11:44:16;15.60;99.90
25046;DHT22;13044;49.304;12.840;2023-10-08T11:46:46;15.50;99.90
25046;DHT22;13044;49.304;12.840;2023-10-08T11:49:18;15.50;99.90
25046;DHT22;13044;49.304;12.840;2023-10-08T11:51:46;15.30;99.90
25046;DHT22;13044;49.304;12.840;2023-10-08T11:54:14;15.10;99.90
25046;DHT22;13044;49.304;12.840;2023-10-08T11:56:42;15.00;99.90
25046;DHT22;13044;49.304;12.840;2023-10-08T11:59:09;14.90;99.90
25046;DHT22;13044;49.304;12.840;2023-10-08T12:01:36;14.70;99.90
25046;DHT22;13044;49.304;12.840;2023-10-08T12:04:05;14.50;99.90
25046;DHT22;13044;49.304;12.840;2023-10-08T12:06:40;14.40;99.90
25046;DHT22;13044;49.304;12.840;2023-10-08T12:09:14;14.40;99.90
25046;DHT22;13044;49.304;12.840;2023-10-08T12:11:41;14.40;99.90
25046;DHT22;13044;49.304;12.840;2023-10-08T12:14:09;14.40;99.90
25046;DHT22;13044;49.304;12.840;2023-10-08T12:16:38;14.40;99.90
25046;DHT22;13044;49.304;12.840;2023-10-08T12:19:06;14.40;99.90
25046;DHT22;13044;49.304;12.840;2023-10-08T12:21:43;14.40;99.90
25046;DHT22;13044;49.304;12.840;2023-10-08T12:24:14;14.30;99.90
25046;DHT22;13044;49.304;12.840;2023-10-08T12:26:42;14.30;99.90
25046;DHT22;13044;49.304;12.840;2023-10-08T12:29:13;14.20;99.90
25046;DHT22;13044;49.304;12.840;2023-10-08T12:31:41;14.10;99.90
25046;DHT22;13044;49.304;12.840;2023-10-08T12:34:08;14.00;99.90
25046;DHT22;13044;49.304;12.840;2023-10-08T12:36:38;14.00;99.90
25046;DHT22;13044;49.304;12.840;2023-10-08T12:39:05;14.00;99.90
25046;DHT22;13044;49.304;12.840;2023-10-08T12:41:43;14.10;99.90
25046;DHT22;13044;49.304;12.840;2023-10-08T12:44:11;13.90;99.90
25046;DHT22;13044;49.304;12.840;2023-10-08T12:46:39;13.90;99.90
25046;DHT22;13044;49.304;12.840;2023-10-08T12:49:10;13.90;99.90
25046;DHT22;13044;49.304;12.840;2023-10-08T12:51:36;13.90;99.90
25046;DHT22;13044;49.304;12.840;2023-10-08T12:54:08;13.80;99.90
25046;DHT22;13044;49.304;12.840;2023-10-08T12:56:38;13.80;99.90
25046;DHT22;13044;49.304;12.840;2023-10-08T12:59:11;13.80;99.90
25046;DHT22;13044;49.304;12.840;2023-10-08T13:01:48;13.80;99.90
25046;DHT22;13044;49.304;12.840;2023-10-08T13:04:18;13.80;99.90
25046;DHT22;13044;49.304;12.840;2023-10-08T13:06:54;13.80;99.90
25046;DHT22;13044;49.304;12.840;2023-10-08T13:09:28;13.90;99.90
25046;DHT22;13044;49.304;12.840;2023-10-08T13:11:59;13.90;99.90
25046;DHT22;13044;49.304;12.840;2023-10-08T13:14:29;13.80;99.90
25046;DHT22;13044;49.304;12.840;2023-10-08T13:16:56;13.80;99.90
25046;DHT22;13044;49.304;12.840;2023-10-08T13:19:23;13.90;99.90
25046;DHT22;13044;49.304;12.840;2023-10-08T13:21:50;13.90;99.90
25046;DHT22;13044;49.304;12.840;2023-10-08T13:24:20;13.90;99.90
25046;DHT22;13044;49.304;12.840;2023-10-08T13:26:51;13.90;99.90
25046;DHT22;13044;49.304;12.840;2023-10-08T13:29:18;14.00;99.90
25046;DHT22;13044;49.304;12.840;2023-10-08T13:31:46;14.00;99.90
25046;DHT22;13044;49.304;12.840;2023-10-08T13:34:13;13.90;99.90
25046;DHT22;13044;49.304;12.840;2023-10-08T13:36:43;13.90;99.90
25046;DHT22;13044;49.304;12.840;2023-10-08T13:39:14;14.00;99.90
25046;DHT22;13044;49.304;12.840;2023-10-08T13:41:45;14.00;99.90
25046;DHT22;13044;49.304;12.840;2023-10-08T13:44:15;14.00;99.90
25046;DHT22;13044;49.304;12.840;2023-10-08T13:46:42;14.00;99.90
25046;DHT22;13044;49.304;12.840;2023-10-08T13:49:16;14.00;99.90
25046;DHT22;13044;49.304;12.840;2023-10-08T13:51:43;13.90;99.90
25046;DHT22;13044;49.304;12.840;2023-10-08T13:54:22;14.00;99.90
25046;DHT22;13044;49.304;12.840;2023-10-08T13:56:52;14.00;99.90
25046;DHT22;13044;49.304;12.840;2023-10-08T13:59:19;14.00;99.90
25046;DHT22;13044;49.304;12.840;2023-10-08T14:01:46;13.90;99.90
25046;DHT22;13044;49.304;12.840;2023-10-08T14:04:14;13.90;99.90
25046;DHT22;13044;49.304;12.840;2023-10-08T14:06:48;13.90;99.90
25046;DHT22;13044;49.304;12.840;2023-10-08T14:09:20;13.80;99.90
25046;DHT22;13044;49.304;12.840;2023-10-08T14:11:48;13.80;99.90
25046;DHT22;13044;49.304;12.840;2023-10-08T14:14:20;13.80;99.90
25046;DHT22;13044;49.304;12.840;2023-10-08T14:16:50;13.70;99.90
25046;DHT22;13044;49.304;12.840;2023-10-08T14:19:20;13.70;99.90
25046;DHT22;13044;49.304;12.840;2023-10-08T14:21:55;13.70;99.90
25046;DHT22;13044;49.304;12.840;2023-10-08T14:24:30;13.60;99.90
25046;DHT22;13044;49.304;12.840;2023-10-08T14:27:04;13.70;99.90
25046;DHT22;13044;49.304;12.840;2023-10-08T14:29:41;13.70;99.90
25046;DHT22;13044;49.304;12.840;2023-10-08T14:32:13;13.70;99.90
25046;DHT22;13044;49.304;12.840;2023-10-08T14:34:42;13.70;99.90
25046;DHT22;13044;49.304;12.840;2023-10-08T14:37:17;13.70;99.90
25046;DHT22;13044;49.304;12.840;2023-10-08T14:40:03;13.70;99.90
25046;DHT22;13044;49.304;12.840;2023-10-08T14:42:49;13.70;99.90
25046;DHT22;13044;49.304;12.840;2023-10-08T14:45:30;13.70;99.90
25046;DHT22;13044;49.304;12.840;2023-10-08T14:48:00;13.70;99.90
25046;DHT22;13044;49.304;12.840;2023-10-08T14:50:28;13.60;99.90
25046;DHT22;13044;49.304;12.840;2023-10-08T14:52:58;13.60;99.90
25046;DHT22;13044;49.304;12.840;2023-10-08T14:55:32;13.70;99.90
25046;DHT22;13044;49.304;12.840;2023-10-08T14:58:04;13.60;99.90
25046;DHT22;13044;49.304;12.840;2023-10-08T15:00:38;13.70;99.90
25046;DHT22;13044;49.304;12.840;2023-10-08T15:03:06;13.70;99.90
25046;DHT22;13044;49.304;12.840;2023-10-08T15:05:35;13.80;99.90
25046;DHT22;13044;49.304;12.840;2023-10-08T15:08:06;13.80;99.90
25046;DHT22;13044;49.304;12.840;2023-10-08T15:10:41;13.70;99.90
25046;DHT22;13044;49.304;12.840;2023-10-08T15:13:08;13.70;99.90
25046;DHT22;13044;49.304;12.840;2023-10-08T15:15:34;13.70;99.90
25046;DHT22;13044;49.304;12.840;2023-10-08T15:18:01;13.70;99.90
25046;DHT22;13044;49.304;12.840;2023-10-08T15:20:29;13.80;99.90
25046;DHT22;13044;49.304;12.840;2023-10-08T15:22:59;13.80;99.90
25046;DHT22;13044;49.304;12.840;2023-10-08T15:25:26;13.80;99.90
25046;DHT22;13044;49.304;12.840;2023-10-08T15:27:53;13.90;99.90
25046;DHT22;13044;49.304;12.840;2023-10-08T15:30:20;13.80;99.90
25046;DHT22;13044;49.304;12.840;2023-10-08T15:32:48;13.80;99.90
25046;DHT22;13044;49.304;12.840;2023-10-08T15:35:18;13.80;99.90
25046;DHT22;13044;49.304;12.840;2023-10-08T15:37:52;13.80;99.90
25046;DHT22;13044;49.304;12.840;2023-10-08T15:40:20;13.80;99.90
25046;DHT22;13044;49.304;12.840;2023-10-08T15:42:53;13.80;99.90
25046;DHT22;13044;49.304;12.840;2023-10-08T15:45:22;13.80;99.90
25046;DHT22;13044;49.304;12.840;2023-10-08T15:47:52;13.70;99.90
25046;DHT22;13044;49.304;12.840;2023-10-08T15:50:20;13.70;99.90
25046;DHT22;13044;49.304;12.840;2023-10-08T15:52:48;13.70;99.90
25046;DHT22;13044;49.304;12.840;2023-10-08T15:55:16;13.70;99.90
25046;DHT22;13044;49.304;12.840;2023-10-08T15:57:45;13.60;99.90
25046;DHT22;13044;49.304;12.840;2023-10-08T16:00:12;13.50;99.90